Time,TemperatureF,DewpointF,PressureIn,WindDirection,WindDirectionDegrees,WindSpeedMPH,WindSpeedGustMPH,Humidity,HourlyPrecipIn,Conditions,Clouds,dailyrainin,SolarRadiationWatts/m^2,SoftwareType,DateUTC
2013-01-31 00:00:00,55.3,53.3,29.28,SSW,211,8.0,8.0,93,0.12,,,0.00,0,Wunderground v.1.15,2013-01-31 05:00:00,
2013-01-31 00:01:00,55.3,53.3,29.28,South,180,8.0,15.0,93,0.12,,,0.00,0,Wunderground v.1.15,2013-01-31 05:01:00,
2013-01-31 00:03:00,55.3,53.3,29.28,SSW,193,8.0,15.0,93,0.14,,,0.01,0,Wunderground v.1.15,2013-01-31 05:03:00,
2013-01-31 00:06:00,55.3,53.3,29.28,South,174,9.0,15.0,93,0.14,,,0.01,0,Wunderground v.1.15,2013-01-31 05:06:00,
2013-01-31 00:12:00,55.2,53.2,29.27,South,169,9.0,10.0,93,0.06,,,0.02,0,Wunderground v.1.15,2013-01-31 05:12:00,
2013-01-31 00:18:00,55.3,53.3,29.27,South,188,10.0,18.0,93,0.12,,,0.03,0,Wunderground v.1.15,2013-01-31 05:18:00,
2013-01-31 00:23:00,55.3,53.3,29.26,South,170,11.0,11.0,93,0.10,,,0.03,0,Wunderground v.1.15,2013-01-31 05:23:00,
2013-01-31 00:29:00,55.3,53.3,29.26,SSE,155,9.0,11.0,93,0.17,,,0.05,0,Wunderground v.1.15,2013-01-31 05:29:00,
2013-01-31 00:34:00,55.1,53.1,29.25,South,190,7.0,9.0,93,0.12,,,0.06,0,Wunderground v.1.15,2013-01-31 05:34:00,
2013-01-31 00:40:00,55.1,53.1,29.24,SSW,195,6.0,8.0,93,0.13,,,0.08,0,Wunderground v.1.15,2013-01-31 05:40:00,
2013-01-31 00:45:00,55.1,53.1,29.24,South,169,6.0,9.0,93,0.18,,,0.09,0,Wunderground v.1.15,2013-01-31 05:45:00,
2013-01-31 00:51:00,55.0,53.0,29.22,South,174,6.0,7.0,93,0.19,,,0.11,0,Wunderground v.1.15,2013-01-31 05:51:00,
2013-01-31 00:57:00,54.9,53.2,29.21,SSE,162,7.0,8.0,94,0.18,,,0.13,0,Wunderground v.1.15,2013-01-31 05:57:00,
2013-01-31 01:02:00,55.0,53.3,29.20,South,170,7.0,8.0,94,0.11,,,0.14,0,Wunderground v.1.15,2013-01-31 06:02:00,
2013-01-31 01:07:00,54.9,53.2,29.21,South,191,6.0,8.0,94,0.15,,,0.15,0,Wunderground v.1.15,2013-01-31 06:07:00,
2013-01-31 01:13:00,54.9,53.2,29.20,South,169,5.0,8.0,94,0.11,,,0.16,0,Wunderground v.1.15,2013-01-31 06:13:00,
2013-01-31 01:18:00,55.0,53.3,29.19,SSE,153,7.0,10.0,94,0.14,,,0.17,0,Wunderground v.1.15,2013-01-31 06:18:00,
2013-01-31 01:24:00,55.0,53.3,29.18,SSW,196,4.0,6.0,94,0.19,,,0.19,0,Wunderground v.1.15,2013-01-31 06:24:00,
2013-01-31 01:29:00,55.0,53.3,29.18,SSW,200,3.0,6.0,94,0.14,,,0.20,0,Wunderground v.1.15,2013-01-31 06:29:00,
2013-01-31 01:35:00,54.9,53.2,29.18,SSE,156,2.0,3.0,94,0.13,,,0.21,0,Wunderground v.1.15,2013-01-31 06:35:00,
2013-01-31 01:40:00,55.1,53.4,29.18,SE,143,3.0,3.0,94,0.06,,,0.21,0,Wunderground v.1.15,2013-01-31 06:40:00,
2013-01-31 01:47:00,55.0,53.3,29.19,SSE,152,2.0,3.0,94,0.11,,,0.23,0,Wunderground v.1.15,2013-01-31 06:47:00,
2013-01-31 01:53:00,55.0,53.3,29.18,West,278,1.0,1.0,94,0.10,,,0.24,0,Wunderground v.1.15,2013-01-31 06:53:00,
2013-01-31 01:58:00,54.9,53.5,29.16,SE,146,3.0,5.0,95,0.11,,,0.25,0,Wunderground v.1.15,2013-01-31 06:58:00,
2013-01-31 02:04:00,55.1,53.7,29.15,ESE,121,4.0,7.0,95,0.08,,,0.25,0,Wunderground v.1.15,2013-01-31 07:04:00,
2013-01-31 02:09:00,55.0,53.3,29.19,WNW,291,5.0,8.0,94,0.39,,,0.28,0,Wunderground v.1.15,2013-01-31 07:09:00,
2013-01-31 02:15:00,54.9,53.5,29.19,WNW,284,6.0,6.0,95,0.10,,,0.28,0,Wunderground v.1.15,2013-01-31 07:15:00,
2013-01-31 02:20:00,54.8,53.4,29.20,West,277,5.0,5.0,95,0.05,,,0.28,0,Wunderground v.1.15,2013-01-31 07:20:00,
2013-01-31 02:26:00,54.5,53.1,29.21,WSW,240,4.0,5.0,95,0.04,,,0.29,0,Wunderground v.1.15,2013-01-31 07:26:00,
2013-01-31 02:32:00,54.3,52.6,29.19,West,275,5.0,7.0,94,0.17,,,0.31,0,Wunderground v.1.15,2013-01-31 07:32:00,
2013-01-31 02:38:00,54.0,52.3,29.19,SE,134,5.0,8.0,94,0.11,,,0.32,0,Wunderground v.1.15,2013-01-31 07:38:00,
2013-01-31 02:43:00,53.9,52.2,29.19,SE,136,6.0,9.0,94,0.13,,,0.33,0,Wunderground v.1.15,2013-01-31 07:43:00,
2013-01-31 02:49:00,53.9,51.9,29.20,ESE,111,10.0,11.0,93,0.11,,,0.34,0,Wunderground v.1.15,2013-01-31 07:49:00,
2013-01-31 02:55:00,53.7,51.7,29.17,SE,135,9.0,11.0,93,0.09,,,0.35,0,Wunderground v.1.15,2013-01-31 07:55:00,
2013-01-31 03:01:00,53.5,51.8,29.16,West,260,5.0,6.0,94,0.09,,,0.36,0,Wunderground v.1.15,2013-01-31 08:01:00,
2013-01-31 03:06:00,53.3,51.6,29.16,SE,132,3.0,8.0,94,0.07,,,0.36,0,Wunderground v.1.15,2013-01-31 08:06:00,
2013-01-31 03:12:00,53.2,51.8,29.15,ESE,122,6.0,7.0,95,0.06,,,0.37,0,Wunderground v.1.15,2013-01-31 08:12:00,
2013-01-31 03:17:00,53.3,51.9,29.16,SE,142,7.0,10.0,95,0.06,,,0.37,0,Wunderground v.1.15,2013-01-31 08:17:00,
2013-01-31 03:23:00,53.2,51.5,29.15,WSW,248,5.0,6.0,94,0.04,,,0.37,0,Wunderground v.1.15,2013-01-31 08:23:00,
2013-01-31 03:29:00,53.1,51.7,29.15,SW,232,3.0,6.0,95,0.14,,,0.39,0,Wunderground v.1.15,2013-01-31 08:29:00,
2013-01-31 03:34:00,52.9,51.5,29.16,West,273,4.0,5.0,95,0.25,,,0.41,0,Wunderground v.1.15,2013-01-31 08:34:00,
2013-01-31 03:40:00,52.8,51.7,29.17,WNW,298,5.0,5.0,96,0.27,,,0.43,0,Wunderground v.1.15,2013-01-31 08:40:00,
2013-01-31 03:45:00,52.4,50.1,29.17,WNW,296,8.0,12.0,92,0.13,,,0.44,0,Wunderground v.1.15,2013-01-31 08:45:00,
2013-01-31 03:51:00,51.4,48.9,29.17,WNW,287,9.0,9.0,91,0.14,,,0.45,0,Wunderground v.1.15,2013-01-31 08:51:00,
2013-01-31 03:56:00,50.8,48.0,29.19,NW,305,9.0,11.0,90,0.06,,,0.45,0,Wunderground v.1.15,2013-01-31 08:56:00,
2013-01-31 04:03:00,50.2,47.1,29.17,WNW,289,8.0,9.0,89,0.04,,,0.45,0,Wunderground v.1.15,2013-01-31 09:03:00,
2013-01-31 04:09:00,49.9,46.5,29.20,West,262,7.0,11.0,88,0.00,,,0.45,0,Wunderground v.1.15,2013-01-31 09:09:00,
2013-01-31 04:15:00,49.6,46.2,29.23,NW,323,8.0,12.0,88,0.00,,,0.45,0,Wunderground v.1.15,2013-01-31 09:15:00,
2013-01-31 04:22:00,47.8,43.8,29.23,WNW,292,11.0,20.0,86,0.00,,,0.46,0,Wunderground v.1.15,2013-01-31 09:22:00,
2013-01-31 04:29:00,46.3,40.8,29.23,NW,306,12.0,20.0,81,0.00,,,0.46,0,Wunderground v.1.15,2013-01-31 09:29:00,
2013-01-31 04:34:00,45.7,40.5,29.24,NNW,344,10.0,12.0,82,0.00,,,0.46,0,Wunderground v.1.15,2013-01-31 09:34:00,
2013-01-31 04:40:00,45.2,39.7,29.24,WNW,286,8.0,8.0,81,0.00,,,0.46,0,Wunderground v.1.15,2013-01-31 09:40:00,
2013-01-31 04:46:00,44.8,39.3,29.24,WNW,284,8.0,19.0,81,0.00,,,0.46,0,Wunderground v.1.15,2013-01-31 09:46:00,
2013-01-31 04:51:00,44.5,38.7,29.25,WNW,296,8.0,14.0,80,0.00,,,0.46,0,Wunderground v.1.15,2013-01-31 09:51:00,
2013-01-31 04:57:00,44.2,37.4,29.27,WNW,294,9.0,14.0,77,0.00,,,0.46,0,Wunderground v.1.15,2013-01-31 09:57:00,
2013-01-31 05:03:00,43.9,36.8,29.26,West,275,9.0,13.0,76,0.00,,,0.46,0,Wunderground v.1.15,2013-01-31 10:03:00,
2013-01-31 05:09:00,43.7,36.6,29.26,WNW,287,9.0,13.0,76,0.00,,,0.46,0,Wunderground v.1.15,2013-01-31 10:09:00,
2013-01-31 05:15:00,43.4,36.7,29.27,NW,309,7.0,12.0,77,0.00,,,0.46,0,Wunderground v.1.15,2013-01-31 10:15:00,
2013-01-31 05:21:00,43.3,36.2,29.27,WSW,252,7.0,11.0,76,0.00,,,0.46,0,Wunderground v.1.15,2013-01-31 10:21:00,
2013-01-31 05:27:00,43.1,35.7,29.28,West,269,9.0,12.0,75,0.00,,,0.46,0,Wunderground v.1.15,2013-01-31 10:27:00,
2013-01-31 05:33:00,43.0,34.9,29.29,West,277,10.0,12.0,73,0.00,,,0.46,0,Wunderground v.1.15,2013-01-31 10:33:00,
2013-01-31 05:39:00,42.9,34.5,29.30,WSW,257,10.0,18.0,72,0.00,,,0.46,0,Wunderground v.1.15,2013-01-31 10:39:00,
2013-01-31 05:45:00,42.7,34.6,29.31,WSW,250,9.0,12.0,73,0.00,,,0.46,0,Wunderground v.1.15,2013-01-31 10:45:00,
2013-01-31 05:51:00,42.6,34.2,29.32,West,268,9.0,9.0,72,0.00,,,0.46,0,Wunderground v.1.15,2013-01-31 10:51:00,
2013-01-31 05:57:00,42.3,33.9,29.33,West,269,10.0,15.0,72,0.00,,,0.46,0,Wunderground v.1.15,2013-01-31 10:57:00,
2013-01-31 06:03:00,42.0,33.3,29.33,West,274,10.0,15.0,71,0.00,,,0.46,0,Wunderground v.1.15,2013-01-31 11:03:00,
2013-01-31 06:08:00,41.6,32.9,29.33,WNW,292,9.0,15.0,71,0.00,,,0.46,0,Wunderground v.1.15,2013-01-31 11:08:00,
2013-01-31 06:13:00,41.4,32.7,29.35,NW,317,9.0,11.0,71,0.00,,,0.46,0,Wunderground v.1.15,2013-01-31 11:13:00,
2013-01-31 06:19:00,41.0,31.6,29.35,WNW,297,10.0,16.0,69,0.00,,,0.46,0,Wunderground v.1.15,2013-01-31 11:19:00,
2013-01-31 06:25:00,40.5,31.5,29.37,WSW,250,11.0,18.0,70,0.00,,,0.46,0,Wunderground v.1.15,2013-01-31 11:25:00,
2013-01-31 06:31:00,40.2,31.2,29.37,WNW,284,10.0,10.0,70,0.00,,,0.46,0,Wunderground v.1.15,2013-01-31 11:31:00,
2013-01-31 06:37:00,39.9,30.5,29.37,West,269,8.0,15.0,69,0.00,,,0.46,0,Wunderground v.1.15,2013-01-31 11:37:00,
2013-01-31 06:42:00,39.7,30.7,29.38,West,269,8.0,8.0,70,0.00,,,0.46,0,Wunderground v.1.15,2013-01-31 11:42:00,
2013-01-31 06:48:00,39.6,30.6,29.38,West,275,7.0,11.0,70,0.00,,,0.46,0,Wunderground v.1.15,2013-01-31 11:48:00,
2013-01-31 06:53:00,39.5,30.5,29.38,West,271,7.0,8.0,70,0.00,,,0.46,0,Wunderground v.1.15,2013-01-31 11:53:00,
2013-01-31 06:59:00,39.4,30.4,29.38,West,272,8.0,21.0,70,0.00,,,0.46,0,Wunderground v.1.15,2013-01-31 11:59:00,
2013-01-31 07:05:00,39.2,29.9,29.38,WNW,296,9.0,18.0,69,0.00,,,0.46,0,Wunderground v.1.15,2013-01-31 12:05:00,
2013-01-31 07:11:00,39.1,30.1,29.39,WNW,283,9.0,10.0,70,0.00,,,0.46,0,Wunderground v.1.15,2013-01-31 12:11:00,
2013-01-31 07:17:00,39.1,29.4,29.41,West,275,10.0,15.0,68,0.00,,,0.46,0,Wunderground v.1.15,2013-01-31 12:17:00,
2013-01-31 07:23:00,38.8,28.8,29.41,WNW,284,11.0,12.0,67,0.00,,,0.46,5,Wunderground v.1.15,2013-01-31 12:23:00,
2013-01-31 07:29:00,38.6,28.6,29.42,NW,311,9.0,16.0,67,0.00,,,0.46,9,Wunderground v.1.15,2013-01-31 12:29:00,
2013-01-31 07:35:00,38.2,27.8,29.42,West,273,9.0,13.0,66,0.00,,,0.46,19,Wunderground v.1.15,2013-01-31 12:35:00,
2013-01-31 07:41:00,38.0,27.6,29.42,WNW,285,10.0,16.0,66,0.00,,,0.46,16,Wunderground v.1.15,2013-01-31 12:41:00,
2013-01-31 07:46:00,38.0,27.6,29.43,WNW,294,11.0,16.0,66,0.00,,,0.46,21,Wunderground v.1.15,2013-01-31 12:46:00,
2013-01-31 07:52:00,37.9,27.9,29.44,NW,324,10.0,13.0,67,0.00,,,0.46,9,Wunderground v.1.15,2013-01-31 12:52:00,
2013-01-31 07:57:00,37.7,28.4,29.45,WNW,284,9.0,14.0,69,0.00,,,0.46,25,Wunderground v.1.15,2013-01-31 12:57:00,
2013-01-31 08:03:00,37.4,28.2,29.45,WNW,298,8.0,11.0,69,0.00,,,0.46,53,Wunderground v.1.15,2013-01-31 13:03:00,
2013-01-31 08:08:00,37.4,28.2,29.46,West,273,8.0,11.0,69,0.00,,,0.46,60,Wunderground v.1.15,2013-01-31 13:08:00,
2013-01-31 08:14:00,37.3,28.1,29.46,NW,313,8.0,13.0,69,0.00,,,0.46,30,Wunderground v.1.15,2013-01-31 13:14:00,
2013-01-31 08:20:00,37.2,27.6,29.46,West,274,9.0,10.0,68,0.00,,,0.46,69,Wunderground v.1.15,2013-01-31 13:20:00,
2013-01-31 08:26:00,37.3,27.3,29.46,West,261,9.0,18.0,67,0.00,,,0.46,47,Wunderground v.1.15,2013-01-31 13:26:00,
2013-01-31 08:31:00,37.4,26.3,29.46,WNW,284,9.0,15.0,64,0.00,,,0.46,35,Wunderground v.1.15,2013-01-31 13:31:00,
2013-01-31 08:37:00,37.6,25.7,29.48,WSW,257,10.0,15.0,62,0.00,,,0.46,60,Wunderground v.1.15,2013-01-31 13:37:00,
2013-01-31 08:42:00,37.6,25.0,29.48,WNW,301,10.0,18.0,60,0.00,,,0.46,58,Wunderground v.1.15,2013-01-31 13:42:00,
2013-01-31 08:47:00,37.5,24.9,29.48,West,281,10.0,18.0,60,0.00,,,0.46,74,Wunderground v.1.15,2013-01-31 13:47:00,
2013-01-31 08:53:00,37.4,24.8,29.48,NW,316,11.0,13.0,60,0.00,,,0.46,74,Wunderground v.1.15,2013-01-31 13:53:00,
2013-01-31 09:00:00,37.1,24.5,29.50,WSW,243,10.0,10.0,60,0.00,,,0.46,62,Wunderground v.1.15,2013-01-31 14:00:00,
2013-01-31 09:06:00,36.9,23.9,29.50,WNW,299,13.0,19.0,59,0.00,,,0.46,83,Wunderground v.1.15,2013-01-31 14:06:00,
2013-01-31 09:12:00,37.0,24.8,29.50,WNW,290,11.0,13.0,61,0.00,,,0.46,113,Wunderground v.1.15,2013-01-31 14:12:00,
2013-01-31 09:18:00,37.0,24.8,29.51,NNW,330,9.0,16.0,61,0.00,,,0.46,70,Wunderground v.1.15,2013-01-31 14:18:00,
2013-01-31 09:24:00,36.7,24.9,29.51,NNW,335,12.0,16.0,62,0.00,,,0.46,81,Wunderground v.1.15,2013-01-31 14:24:00,
2013-01-31 09:30:00,36.8,25.0,29.51,NW,305,11.0,11.0,62,0.00,,,0.46,350,Wunderground v.1.15,2013-01-31 14:30:00,
2013-01-31 09:35:00,36.5,24.7,29.52,NNW,344,9.0,12.0,62,0.00,,,0.46,56,Wunderground v.1.15,2013-01-31 14:35:00,
2013-01-31 09:42:00,36.3,24.9,29.52,NNW,331,10.0,16.0,63,0.00,,,0.46,79,Wunderground v.1.15,2013-01-31 14:42:00,
2013-01-31 09:47:00,36.3,25.3,29.52,NW,325,10.0,16.0,64,0.00,,,0.46,79,Wunderground v.1.15,2013-01-31 14:47:00,
2013-01-31 09:52:00,36.4,25.4,29.52,WNW,300,8.0,9.0,64,0.00,,,0.46,95,Wunderground v.1.15,2013-01-31 14:52:00,
2013-01-31 09:58:00,36.4,25.0,29.53,NW,309,8.0,12.0,63,0.00,,,0.46,118,Wunderground v.1.15,2013-01-31 14:58:00,
2013-01-31 10:03:00,36.5,25.1,29.53,WNW,290,8.0,12.0,63,0.00,,,0.46,86,Wunderground v.1.15,2013-01-31 15:03:00,
2013-01-31 10:09:00,36.5,25.1,29.52,NW,319,9.0,19.0,63,0.00,,,0.46,90,Wunderground v.1.15,2013-01-31 15:09:00,
2013-01-31 10:15:00,36.5,25.1,29.53,NW,317,9.0,12.0,63,0.00,,,0.46,121,Wunderground v.1.15,2013-01-31 15:15:00,
2013-01-31 10:20:00,36.4,24.6,29.53,NNW,329,10.0,11.0,62,0.00,,,0.46,111,Wunderground v.1.15,2013-01-31 15:20:00,
2013-01-31 10:25:00,36.2,24.8,29.54,West,272,12.0,14.0,63,0.00,,,0.46,77,Wunderground v.1.15,2013-01-31 15:25:00,
2013-01-31 10:30:00,36.1,25.5,29.54,WNW,287,10.0,12.0,65,0.00,,,0.46,74,Wunderground v.1.15,2013-01-31 15:30:00,
2013-01-31 10:36:00,35.3,26.5,29.55,WNW,284,9.0,14.0,70,0.00,,,0.46,86,Wunderground v.1.15,2013-01-31 15:36:00,
2013-01-31 10:43:00,35.7,25.8,29.55,SW,223,8.0,14.0,67,0.00,,,0.46,134,Wunderground v.1.15,2013-01-31 15:43:00,
2013-01-31 10:48:00,36.1,25.1,29.55,West,279,7.0,14.0,64,0.00,,,0.46,246,Wunderground v.1.15,2013-01-31 15:48:00,
2013-01-31 10:54:00,36.7,24.1,29.55,NW,304,7.0,13.0,60,0.00,,,0.46,520,Wunderground v.1.15,2013-01-31 15:54:00,
2013-01-31 10:59:00,36.9,24.7,29.56,West,273,10.0,13.0,61,0.00,,,0.46,519,Wunderground v.1.15,2013-01-31 15:59:00,
2013-01-31 11:05:00,37.2,24.6,29.56,SW,234,10.0,12.0,60,0.00,,,0.46,554,Wunderground v.1.15,2013-01-31 16:05:00,
2013-01-31 11:11:00,37.5,24.1,29.56,NW,313,9.0,18.0,58,0.00,,,0.46,643,Wunderground v.1.15,2013-01-31 16:11:00,
2013-01-31 11:16:00,37.5,23.6,29.56,WNW,291,11.0,25.0,57,0.00,,,0.46,671,Wunderground v.1.15,2013-01-31 16:16:00,
2013-01-31 11:22:00,37.3,23.4,29.56,West,262,13.0,29.0,57,0.00,,,0.46,207,Wunderground v.1.15,2013-01-31 16:22:00,
2013-01-31 11:27:00,37.2,23.8,29.56,SE,129,12.0,29.0,58,0.00,,,0.46,629,Wunderground v.1.15,2013-01-31 16:27:00,
2013-01-31 11:33:00,37.4,23.5,29.57,WNW,284,11.0,12.0,57,0.00,,,0.46,552,Wunderground v.1.15,2013-01-31 16:33:00,
2013-01-31 11:38:00,37.2,23.8,29.57,NNW,329,12.0,20.0,58,0.00,,,0.46,543,Wunderground v.1.15,2013-01-31 16:38:00,
2013-01-31 11:43:00,37.3,23.9,29.57,SW,233,12.0,12.0,58,0.00,,,0.46,503,Wunderground v.1.15,2013-01-31 16:43:00,
2013-01-31 11:49:00,37.0,24.4,29.58,West,264,10.0,16.0,60,0.00,,,0.46,220,Wunderground v.1.15,2013-01-31 16:49:00,
2013-01-31 11:54:00,36.1,22.3,29.58,NW,304,12.0,27.0,57,0.00,,,0.46,158,Wunderground v.1.15,2013-01-31 16:54:00,
2013-01-31 12:00:00,35.6,22.3,29.58,WNW,292,12.0,12.0,58,0.00,,,0.46,385,Wunderground v.1.15,2013-01-31 17:00:00,
2013-01-31 12:06:00,35.9,22.5,29.58,NW,323,10.0,15.0,58,0.00,,,0.46,541,Wunderground v.1.15,2013-01-31 17:06:00,
2013-01-31 12:12:00,36.6,22.8,29.58,WNW,290,10.0,10.0,57,0.00,,,0.46,563,Wunderground v.1.15,2013-01-31 17:12:00,
2013-01-31 12:18:00,37.0,22.3,29.58,West,269,8.0,13.0,55,0.00,,,0.46,401,Wunderground v.1.15,2013-01-31 17:18:00,
2013-01-31 12:24:00,37.1,21.5,29.58,WNW,286,10.0,12.0,53,0.00,,,0.46,568,Wunderground v.1.15,2013-01-31 17:24:00,
2013-01-31 12:29:00,36.4,21.3,29.58,WNW,300,10.0,14.0,54,0.00,,,0.46,83,Wunderground v.1.15,2013-01-31 17:29:00,
2013-01-31 12:35:00,35.9,21.7,29.59,WNW,300,10.0,15.0,56,0.00,,,0.46,125,Wunderground v.1.15,2013-01-31 17:35:00,
2013-01-31 12:40:00,36.0,21.8,29.59,WNW,292,10.0,11.0,56,0.00,,,0.46,401,Wunderground v.1.15,2013-01-31 17:40:00,
2013-01-31 12:46:00,36.4,21.8,29.59,West,277,10.0,20.0,55,0.00,,,0.46,271,Wunderground v.1.15,2013-01-31 17:46:00,
2013-01-31 12:52:00,36.1,20.6,29.60,West,262,11.0,21.0,53,0.00,,,0.46,292,Wunderground v.1.15,2013-01-31 17:52:00,
2013-01-31 12:58:00,36.0,19.6,29.60,WNW,286,12.0,21.0,51,0.00,,,0.46,243,Wunderground v.1.15,2013-01-31 17:58:00,
2013-01-31 13:04:00,36.1,18.8,29.61,West,263,11.0,21.0,49,0.00,,,0.46,346,Wunderground v.1.15,2013-01-31 18:04:00,
2013-01-31 13:10:00,35.8,19.0,29.61,West,259,12.0,12.0,50,0.00,,,0.46,139,Wunderground v.1.15,2013-01-31 18:10:00,
2013-01-31 13:15:00,35.6,18.3,29.61,West,279,10.0,21.0,49,0.00,,,0.46,86,Wunderground v.1.15,2013-01-31 18:15:00,
2013-01-31 13:21:00,34.9,18.1,29.62,West,267,12.0,19.0,50,0.00,,,0.46,125,Wunderground v.1.15,2013-01-31 18:21:00,
2013-01-31 13:26:00,35.1,18.8,29.62,ESE,108,11.0,19.0,51,0.00,,,0.46,148,Wunderground v.1.15,2013-01-31 18:26:00,
2013-01-31 13:32:00,35.3,18.5,29.62,West,270,10.0,18.0,50,0.00,,,0.46,216,Wunderground v.1.15,2013-01-31 18:32:00,
2013-01-31 13:37:00,34.7,17.9,29.62,NW,323,12.0,18.0,50,0.00,,,0.46,139,Wunderground v.1.15,2013-01-31 18:37:00,
2013-01-31 13:42:00,34.5,17.8,29.63,West,260,11.0,18.0,50,0.00,,,0.46,91,Wunderground v.1.15,2013-01-31 18:42:00,
2013-01-31 13:48:00,34.4,17.2,29.63,SSW,207,10.0,18.0,49,0.00,,,0.46,91,Wunderground v.1.15,2013-01-31 18:48:00,
2013-01-31 13:53:00,34.1,15.5,29.63,West,279,10.0,16.0,46,0.00,,,0.46,114,Wunderground v.1.15,2013-01-31 18:53:00,
2013-01-31 13:58:00,34.1,15.5,29.64,West,270,10.0,16.0,46,0.00,,,0.46,135,Wunderground v.1.15,2013-01-31 18:58:00,
2013-01-31 14:04:00,34.1,15.5,29.64,NW,311,10.0,15.0,46,0.00,,,0.46,135,Wunderground v.1.15,2013-01-31 19:04:00,
2013-01-31 14:10:00,33.8,15.7,29.64,WNW,302,12.0,12.0,47,0.00,,,0.46,100,Wunderground v.1.15,2013-01-31 19:10:00,
2013-01-31 14:15:00,33.7,16.5,29.65,SW,235,11.0,12.0,49,0.00,,,0.46,137,Wunderground v.1.15,2013-01-31 19:15:00,
2013-01-31 14:21:00,33.5,17.7,29.65,West,275,9.0,12.0,52,0.00,,,0.46,141,Wunderground v.1.15,2013-01-31 19:21:00,
2013-01-31 14:26:00,33.6,17.8,29.65,NW,319,10.0,19.0,52,0.00,,,0.46,241,Wunderground v.1.15,2013-01-31 19:26:00,
2013-01-31 14:32:00,33.2,18.8,29.66,WNW,288,12.0,12.0,55,0.00,,,0.46,146,Wunderground v.1.15,2013-01-31 19:32:00,
2013-01-31 14:37:00,32.7,19.1,29.66,NW,313,12.0,14.0,57,0.00,,,0.46,134,Wunderground v.1.15,2013-01-31 19:37:00,
2013-01-31 14:42:00,32.6,18.6,29.67,West,275,12.0,19.0,56,0.00,,,0.46,81,Wunderground v.1.15,2013-01-31 19:42:00,
2013-01-31 14:47:00,32.3,17.1,29.67,West,279,11.0,19.0,53,0.00,,,0.46,135,Wunderground v.1.15,2013-01-31 19:47:00,
2013-01-31 14:53:00,32.1,19.0,29.68,WNW,297,10.0,18.0,58,0.00,,,0.46,153,Wunderground v.1.15,2013-01-31 19:53:00,
2013-01-31 14:58:00,31.8,19.5,29.68,West,277,10.0,18.0,60,0.00,,,0.46,167,Wunderground v.1.15,2013-01-31 19:58:00,
2013-01-31 15:04:00,31.7,19.8,29.69,West,262,10.0,15.0,61,0.00,,,0.46,146,Wunderground v.1.15,2013-01-31 20:04:00,
2013-01-31 15:10:00,31.4,20.2,29.69,NNW,343,10.0,10.0,63,0.00,,,0.46,200,Wunderground v.1.15,2013-01-31 20:10:00,
2013-01-31 15:15:00,31.3,19.8,29.69,NW,311,10.0,13.0,62,0.00,,,0.46,69,Wunderground v.1.15,2013-01-31 20:15:00,
2013-01-31 15:21:00,31.3,17.8,29.69,West,269,9.0,11.0,57,0.00,,,0.46,98,Wunderground v.1.15,2013-01-31 20:21:00,
2013-01-31 15:27:00,31.3,17.8,29.70,WNW,297,9.0,12.0,57,0.00,,,0.46,72,Wunderground v.1.15,2013-01-31 20:27:00,
2013-01-31 15:33:00,31.3,17.4,29.70,South,183,9.0,10.0,56,0.00,,,0.46,79,Wunderground v.1.15,2013-01-31 20:33:00,
2013-01-31 15:39:00,31.4,16.7,29.70,NW,304,8.0,13.0,54,0.00,,,0.46,91,Wunderground v.1.15,2013-01-31 20:39:00,
2013-01-31 15:45:00,31.6,16.4,29.71,NW,305,9.0,11.0,53,0.00,,,0.46,127,Wunderground v.1.15,2013-01-31 20:45:00,
2013-01-31 15:51:00,31.7,16.1,29.72,WSW,239,9.0,9.0,52,0.00,,,0.46,81,Wunderground v.1.15,2013-01-31 20:51:00,
2013-01-31 15:56:00,31.7,16.1,29.71,WSW,246,8.0,9.0,52,0.00,,,0.46,83,Wunderground v.1.15,2013-01-31 20:56:00,
2013-01-31 16:02:00,31.6,16.4,29.72,West,263,8.0,10.0,53,0.00,,,0.46,70,Wunderground v.1.15,2013-01-31 21:02:00,
2013-01-31 16:08:00,31.5,16.7,29.72,WNW,285,8.0,12.0,54,0.00,,,0.46,56,Wunderground v.1.15,2013-01-31 21:08:00,
2013-01-31 16:14:00,31.0,17.5,29.72,WSW,256,9.0,16.0,57,0.00,,,0.46,65,Wunderground v.1.15,2013-01-31 21:14:00,
2013-01-31 16:19:00,30.4,19.7,29.73,WNW,290,8.0,16.0,64,0.00,,,0.46,84,Wunderground v.1.15,2013-01-31 21:19:00,
2013-01-31 16:25:00,29.7,20.4,29.73,West,262,9.0,14.0,68,0.00,,,0.46,54,Wunderground v.1.15,2013-01-31 21:25:00,
2013-01-31 16:31:00,29.6,20.7,29.73,NW,315,9.0,11.0,69,0.00,,,0.46,32,Wunderground v.1.15,2013-01-31 21:31:00,
2013-01-31 16:36:00,29.5,20.9,29.74,West,279,8.0,11.0,70,0.00,,,0.46,32,Wunderground v.1.15,2013-01-31 21:36:00,
2013-01-31 16:42:00,29.4,21.5,29.74,WSW,257,8.0,9.0,72,0.00,,,0.46,30,Wunderground v.1.15,2013-01-31 21:42:00,
2013-01-31 16:47:00,29.1,22.5,29.74,WNW,300,8.0,9.0,76,0.00,,,0.46,25,Wunderground v.1.15,2013-01-31 21:47:00,
2013-01-31 16:53:00,28.9,22.6,29.75,WSW,256,6.0,7.0,77,0.00,,,0.46,30,Wunderground v.1.15,2013-01-31 21:53:00,
2013-01-31 16:58:00,28.9,22.6,29.75,West,272,6.0,9.0,77,0.00,,,0.46,40,Wunderground v.1.15,2013-01-31 21:58:00,
2013-01-31 17:03:00,29.0,22.4,29.75,West,276,6.0,6.0,76,0.00,,,0.46,18,Wunderground v.1.15,2013-01-31 22:03:00,
2013-01-31 17:09:00,29.2,22.3,29.75,West,281,5.0,8.0,75,0.00,,,0.46,11,Wunderground v.1.15,2013-01-31 22:09:00,
2013-01-31 17:15:00,29.4,21.5,29.75,WNW,290,5.0,6.0,72,0.00,,,0.46,7,Wunderground v.1.15,2013-01-31 22:15:00,
2013-01-31 17:21:00,29.6,21.0,29.75,West,261,5.0,6.0,70,0.00,,,0.46,0,Wunderground v.1.15,2013-01-31 22:21:00,
2013-01-31 17:27:00,29.8,19.8,29.75,West,265,6.0,12.0,66,0.00,,,0.46,0,Wunderground v.1.15,2013-01-31 22:27:00,
2013-01-31 17:32:00,29.8,19.5,29.76,West,261,8.0,15.0,65,0.00,,,0.46,0,Wunderground v.1.15,2013-01-31 22:32:00,
2013-01-31 17:38:00,29.7,19.4,29.77,WSW,254,9.0,15.0,65,0.00,,,0.46,0,Wunderground v.1.15,2013-01-31 22:38:00,
2013-01-31 17:43:00,29.6,18.9,29.77,NW,309,9.0,12.0,64,0.00,,,0.46,0,Wunderground v.1.15,2013-01-31 22:43:00,
2013-01-31 17:49:00,29.3,18.6,29.78,WSW,243,11.0,18.0,64,0.00,,,0.46,0,Wunderground v.1.15,2013-01-31 22:49:00,
2013-01-31 17:55:00,28.6,18.7,29.78,West,267,13.0,25.0,66,0.00,,,0.46,0,Wunderground v.1.15,2013-01-31 22:55:00,
2013-01-31 18:00:00,27.8,19.9,29.79,NW,315,13.0,13.0,72,0.00,,,0.46,0,Wunderground v.1.15,2013-01-31 23:00:00,
2013-01-31 18:05:00,27.5,20.3,29.79,NW,307,11.0,13.0,74,0.00,,,0.46,0,Wunderground v.1.15,2013-01-31 23:05:00,
2013-01-31 18:11:00,27.6,19.8,29.80,WNW,284,10.0,10.0,72,0.00,,,0.46,0,Wunderground v.1.15,2013-01-31 23:11:00,
2013-01-31 18:16:00,27.8,18.9,29.80,WNW,293,10.0,13.0,69,0.00,,,0.46,0,Wunderground v.1.15,2013-01-31 23:16:00,
2013-01-31 18:22:00,28.0,17.7,29.81,West,276,9.0,10.0,65,0.00,,,0.46,0,Wunderground v.1.15,2013-01-31 23:22:00,
2013-01-31 18:28:00,28.1,17.5,29.81,WNW,292,8.0,14.0,64,0.00,,,0.46,0,Wunderground v.1.15,2013-01-31 23:28:00,
2013-01-31 18:33:00,28.2,16.5,29.81,WNW,294,8.0,12.0,61,0.00,,,0.46,0,Wunderground v.1.15,2013-01-31 23:33:00,
2013-01-31 18:38:00,28.2,16.1,29.81,WNW,303,9.0,12.0,60,0.00,,,0.46,0,Wunderground v.1.15,2013-01-31 23:38:00,
2013-01-31 18:44:00,28.2,16.1,29.82,WNW,302,7.0,8.0,60,0.00,,,0.46,0,Wunderground v.1.15,2013-01-31 23:44:00,
2013-01-31 18:49:00,28.2,15.3,29.82,NW,309,7.0,12.0,58,0.00,,,0.46,0,Wunderground v.1.15,2013-01-31 23:49:00,
2013-01-31 18:54:00,28.2,15.3,29.82,West,274,8.0,8.0,58,0.00,,,0.46,0,Wunderground v.1.15,2013-01-31 23:54:00,
2013-01-31 19:00:00,28.2,15.7,29.83,West,271,7.0,8.0,59,0.00,,,0.46,0,Wunderground v.1.15,2013-02-01 00:00:00,
2013-01-31 19:06:00,28.1,15.2,29.83,West,265,9.0,15.0,58,0.00,,,0.46,0,Wunderground v.1.15,2013-02-01 00:06:00,
2013-01-31 19:12:00,28.0,15.9,29.84,NW,313,10.0,12.0,60,0.00,,,0.46,0,Wunderground v.1.15,2013-02-01 00:12:00,
2013-01-31 19:18:00,27.9,15.8,29.84,North,355,10.0,14.0,60,0.00,,,0.46,0,Wunderground v.1.15,2013-02-01 00:18:00,
2013-01-31 19:23:00,27.6,15.9,29.85,West,281,10.0,11.0,61,0.00,,,0.46,0,Wunderground v.1.15,2013-02-01 00:23:00,
2013-01-31 19:29:00,27.6,15.5,29.85,West,268,9.0,11.0,60,0.00,,,0.46,0,Wunderground v.1.15,2013-02-01 00:29:00,
2013-01-31 19:34:00,27.7,14.8,29.85,SW,236,8.0,11.0,58,0.00,,,0.46,0,Wunderground v.1.15,2013-02-01 00:34:00,
2013-01-31 19:39:00,27.6,14.7,29.85,West,261,9.0,13.0,58,0.00,,,0.46,0,Wunderground v.1.15,2013-02-01 00:39:00,
2013-01-31 19:45:00,27.5,14.6,29.85,West,274,9.0,12.0,58,0.00,,,0.46,0,Wunderground v.1.15,2013-02-01 00:45:00,
2013-01-31 19:51:00,27.4,14.5,29.85,WNW,299,8.0,8.0,58,0.00,,,0.46,0,Wunderground v.1.15,2013-02-01 00:51:00,
2013-01-31 19:56:00,27.4,14.1,29.85,WNW,291,7.0,10.0,57,0.00,,,0.46,0,Wunderground v.1.15,2013-02-01 00:56:00,
2013-01-31 20:01:00,27.5,13.4,29.86,WSW,248,8.0,11.0,55,0.00,,,0.46,0,Wunderground v.1.15,2013-02-01 01:01:00,
2013-01-31 20:07:00,27.5,13.4,29.86,NW,309,9.0,11.0,55,0.00,,,0.46,0,Wunderground v.1.15,2013-02-01 01:07:00,
2013-01-31 20:13:00,27.4,13.3,29.86,West,268,8.0,12.0,55,0.00,,,0.46,0,Wunderground v.1.15,2013-02-01 01:13:00,
2013-01-31 20:18:00,27.4,13.3,29.87,North,360,8.0,18.0,55,0.00,,,0.46,0,Wunderground v.1.15,2013-02-01 01:18:00,
2013-01-31 20:24:00,27.4,13.3,29.86,West,268,7.0,8.0,55,0.00,,,0.46,0,Wunderground v.1.15,2013-02-01 01:24:00,
2013-01-31 20:30:00,27.4,13.3,29.86,WNW,284,8.0,8.0,55,0.00,,,0.46,0,Wunderground v.1.15,2013-02-01 01:30:00,
2013-01-31 20:36:00,27.4,13.3,29.86,NW,310,8.0,12.0,55,0.00,,,0.46,0,Wunderground v.1.15,2013-02-01 01:36:00,
2013-01-31 20:41:00,27.4,13.3,29.86,West,261,7.0,8.0,55,0.00,,,0.46,0,Wunderground v.1.15,2013-02-01 01:41:00,
2013-01-31 20:47:00,27.5,13.4,29.86,West,268,7.0,11.0,55,0.00,,,0.46,0,Wunderground v.1.15,2013-02-01 01:47:00,
2013-01-31 20:52:00,27.6,13.5,29.86,West,275,7.0,7.0,55,0.00,,,0.46,0,Wunderground v.1.15,2013-02-01 01:52:00,
2013-01-31 20:58:00,27.6,13.5,29.86,West,277,6.0,8.0,55,0.00,,,0.46,0,Wunderground v.1.15,2013-02-01 01:58:00,
2013-01-31 21:04:00,27.6,13.5,29.86,NW,322,7.0,9.0,55,0.00,,,0.46,0,Wunderground v.1.15,2013-02-01 02:04:00,
2013-01-31 21:09:00,27.6,13.9,29.86,NNE,18,7.0,9.0,56,0.00,,,0.46,0,Wunderground v.1.15,2013-02-01 02:09:00,
2013-01-31 21:15:00,27.7,14.4,29.86,NNW,344,6.0,9.0,57,0.00,,,0.46,0,Wunderground v.1.15,2013-02-01 02:15:00,
2013-01-31 21:21:00,27.6,14.3,29.86,West,274,6.0,8.0,57,0.00,,,0.46,0,Wunderground v.1.15,2013-02-01 02:21:00,
2013-01-31 21:26:00,27.5,14.6,29.86,West,272,6.0,8.0,58,0.00,,,0.46,0,Wunderground v.1.15,2013-02-01 02:26:00,
2013-01-31 21:32:00,27.6,14.3,29.86,WNW,298,6.0,6.0,57,0.00,,,0.46,0,Wunderground v.1.15,2013-02-01 02:32:00,
2013-01-31 21:37:00,27.6,14.7,29.86,West,272,5.0,7.0,58,0.00,,,0.46,0,Wunderground v.1.15,2013-02-01 02:37:00,
2013-01-31 21:43:00,27.6,14.3,29.86,West,277,4.0,7.0,57,0.00,,,0.46,0,Wunderground v.1.15,2013-02-01 02:43:00,
2013-01-31 21:49:00,27.6,14.3,29.86,West,260,5.0,7.0,57,0.00,,,0.46,0,Wunderground v.1.15,2013-02-01 02:49:00,
2013-01-31 21:55:00,27.6,14.3,29.86,ESE,105,5.0,8.0,57,0.00,,,0.46,0,Wunderground v.1.15,2013-02-01 02:55:00,
2013-01-31 22:00:00,27.4,14.1,29.86,West,276,6.0,7.0,57,0.00,,,0.46,0,Wunderground v.1.15,2013-02-01 03:00:00,
2013-01-31 22:06:00,27.3,14.1,29.86,WNW,292,6.0,9.0,57,0.00,,,0.46,0,Wunderground v.1.15,2013-02-01 03:06:00,
2013-01-31 22:11:00,27.2,14.0,29.86,West,279,7.0,11.0,57,0.00,,,0.46,0,Wunderground v.1.15,2013-02-01 03:11:00,
2013-01-31 22:17:00,27.2,14.0,29.86,WNW,284,7.0,11.0,57,0.00,,,0.46,0,Wunderground v.1.15,2013-02-01 03:17:00,
2013-01-31 22:22:00,27.1,13.9,29.86,WSW,239,6.0,8.0,57,0.00,,,0.46,0,Wunderground v.1.15,2013-02-01 03:22:00,
2013-01-31 22:29:00,27.0,14.2,29.86,WSW,249,6.0,9.0,58,0.00,,,0.46,0,Wunderground v.1.15,2013-02-01 03:29:00,
2013-01-31 22:34:00,27.0,14.2,29.86,SE,132,4.0,8.0,58,0.00,,,0.46,0,Wunderground v.1.15,2013-02-01 03:34:00,
2013-01-31 22:40:00,26.9,13.7,29.87,SW,235,5.0,8.0,57,0.00,,,0.46,0,Wunderground v.1.15,2013-02-01 03:40:00,
2013-01-31 22:46:00,27.0,14.2,29.87,SE,133,6.0,8.0,58,0.00,,,0.46,0,Wunderground v.1.15,2013-02-01 03:46:00,
2013-01-31 22:51:00,27.0,14.2,29.86,WSW,246,4.0,5.0,58,0.00,,,0.46,0,Wunderground v.1.15,2013-02-01 03:51:00,
2013-01-31 22:57:00,26.9,14.5,29.87,WSW,246,3.0,6.0,59,0.00,,,0.46,0,Wunderground v.1.15,2013-02-01 03:57:00,
2013-01-31 23:03:00,26.9,14.9,29.87,SE,144,4.0,7.0,60,0.00,,,0.46,0,Wunderground v.1.15,2013-02-01 04:03:00,
2013-01-31 23:09:00,26.8,14.8,29.87,SE,136,4.0,8.0,60,0.00,,,0.46,0,Wunderground v.1.15,2013-02-01 04:09:00,
2013-01-31 23:14:00,26.8,15.5,29.87,WNW,302,4.0,5.0,62,0.00,,,0.46,0,Wunderground v.1.15,2013-02-01 04:14:00,
2013-01-31 23:20:00,26.7,16.1,29.87,West,275,5.0,6.0,64,0.00,,,0.46,0,Wunderground v.1.15,2013-02-01 04:20:00,
2013-01-31 23:26:00,26.6,16.1,29.87,SE,140,5.0,7.0,64,0.00,,,0.46,0,Wunderground v.1.15,2013-02-01 04:26:00,
2013-01-31 23:31:00,26.5,16.7,29.87,WNW,287,4.0,4.0,66,0.00,,,0.46,0,Wunderground v.1.15,2013-02-01 04:31:00,
2013-01-31 23:37:00,26.3,17.2,29.87,West,269,4.0,7.0,68,0.00,,,0.46,0,Wunderground v.1.15,2013-02-01 04:37:00,
2013-01-31 23:43:00,26.2,17.4,29.87,WSW,257,4.0,8.0,69,0.00,,,0.46,0,Wunderground v.1.15,2013-02-01 04:43:00,
2013-01-31 23:49:00,26.1,17.6,29.87,WSW,254,4.0,8.0,70,0.00,,,0.46,0,Wunderground v.1.15,2013-02-01 04:49:00,
2013-01-31 23:55:00,26.0,17.9,29.87,South,169,5.0,9.0,71,0.00,,,0.46,0,Wunderground v.1.15,2013-02-01 04:55:00,